logo
App data

Klepto

Welcome to Klepto where there's no place like a burglarized home. In this burglary simulation you'll explore, terrorize and loot your way to success in a variety of open-world sandbox neighborhoods. **VR is NOT required for this game.
Store | Hub | SteamDB | Site
Developer: Meerkat Gaming Publisher: Meerkat Gaming
Genre: Action, Indie, Simulation, Early Access
Languages: English
Tags: Early Access (37), Simulation (30), Action (26), Indie (26), Crime (16), Multiplayer (14), VR (14), Open World (11), Stealth (9), First-Person (5)
Category: Single-player, Multi-player, Online Multi-Player, Co-op, Online Co-op, Steam Achievements, Full controller support, Steam Trading Cards, VR Support, Stats, Steam Leaderboards
Release date: Jun 30, 2016
Price: $12.99
Old userscore: 37% Owners: 0 .. 20,000
Followers: 3,866
Peak concurrent players yesterday: 1
YouTube stats: 1,943 views and 15 comments for videos uploaded last week, 1 new videos uploaded yesterday.

Steam Spy is still in beta, so expect major bugs.

Owners data:

Access restricted.

This feature is only available to users with special access rights. Sorry.

If you want to proceed, you need to register or log in first and then back Steam Spy on Patreon. Look for Indie or Pro pledge.

Don't forget to use the same email as on Steam Spy!

Audience in 2 weeks:

Access restricted.

This feature is only available to users with special access rights. Sorry.

If you want to proceed, you need to register or log in first and then back Steam Spy on Patreon. Look for Indie or Pro pledge.

Don't forget to use the same email as on Steam Spy!

Peak daily concurrent players:

CCU data courtesy of SteamDB. Used with permission.

Hourly concurrent players:

Daily Twitch stats:

Hourly Twitch stats:

YouTube:

The views data is based on top 50 videos uploaded last week. Actual number of views might be more than the number shown.

The displayed number of videos uploaded yesterday is limited to 50, so if there were more videos uploaded, the number will still show 50.

If the game has commonly used word as its name (like "FEAR" or "Volume") its number of Youtube views might be wrong.

Games similar to this one:

# Game Release date
Price
Score rank
(Userscore / Metascore)
Owners
Players
Playtime (Median)
1 Pixel Puzzles 2: RADical ROACH Aug 12, 2016 $9.99N/A (N/A)20,000 .. 50,0000%00:00 (00:00)
2 Cube Land Arena Mar 29, 2016 $0.99N/A (N/A)20,000 .. 50,0000%00:00 (00:00)
3 none Nov 4, 2015 N/AN/A (N/A)20,000 .. 50,0000%00:00 (00:00)
4 Glorkian Warrior: The Trials Of Glork Mar 24, 2015 $3.99N/A (N/A)20,000 .. 50,0000%00:00 (00:00)
5 Jones On Fire Mar 27, 2015 $2.99N/A (N/A)100,000 .. 200,0000%00:00 (00:00)
6 Witch It May 31, 2017 $7.49N/A (N/A)100,000 .. 200,00016.67%00:21 (00:10)
7 Deathwave Jun 9, 2016 $4.99N/A (N/A)0 .. 20,0000%00:00 (00:00)
8 Heavy Gear Assault Feb 10, 2017 $39.99N/A (N/A)0 .. 20,0000%00:00 (00:00)
9 Hare In The Hat Apr 1, 2015 $1.99N/A (N/A)20,000 .. 50,0000%00:00 (00:00)
10 The Masterplan Jun 4, 2015 $19.99N/A (N/A/68%)50,000 .. 100,0000%00:00 (00:00)
11 It Comes Around - A Kinetic Novel Sep 29, 2016 $2.99N/A (N/A)20,000 .. 50,0000%00:00 (00:00)
12 Rising Islands Aug 2, 2016 $9.99N/A (N/A)0 .. 20,0000%00:00 (00:00)
13 A.I. Invasion Sep 30, 2015 $2.99N/A (N/A)0 .. 20,0000%00:00 (00:00)
14 Countless Rooms of Death Jan 9, 2015 $0.99N/A (N/A)20,000 .. 50,0000%00:00 (00:00)
15 Canyon Capers Apr 25, 2014 $0.69N/A (N/A)200,000 .. 500,0000%00:00 (00:00)
16 Introvert Quest Mar 15, 2017 $4.99N/A (N/A)200,000 .. 500,0000%00:00 (00:00)
17 The Dweller May 19, 2016 $4.99N/A (N/A)50,000 .. 100,0000%00:00 (00:00)
18 CHKN Apr 1, 2016 $14.99N/A (N/A)20,000 .. 50,0000%00:00 (00:00)
19 Spellsworn Mar 13, 2018 FreeN/A (N/A)100,000 .. 200,00016.67%00:15 (00:05)
20 Great Permutator Sep 15, 2014 $6.99N/A (N/A)20,000 .. 50,0000%00:00 (00:00)
21 Starship Annihilator Sep 2, 2016 $0.99N/A (N/A)50,000 .. 100,0000%00:00 (00:00)
22 Frederic: Resurrection of Music Director's Cut Apr 21, 2016 $5.99N/A (N/A)50,000 .. 100,0000%00:00 (00:00)
23 Sora Jan 5, 2016 $8.99N/A (N/A/74%)20,000 .. 50,0000%00:00 (00:00)
24 Trash TV Feb 23, 2015 $6.99N/A (N/A)20,000 .. 50,0000%00:00 (00:00)
25 Labyrinthine Dreams May 26, 2015 $1.99N/A (N/A)50,000 .. 100,0000%00:00 (00:00)
26 Distant Space Dec 20, 2016 $0.99N/A (N/A)50,000 .. 100,0000%00:00 (00:00)
27 Insincere May 12, 2016 $0.51N/A (N/A)200,000 .. 500,0000%00:00 (00:00)
28 Hard Room Jan 21, 2016 $2.99N/A (N/A)200,000 .. 500,0000%00:00 (00:00)
29 Pixel Star May 22, 2015 $2.99N/A (N/A)20,000 .. 50,0000%00:00 (00:00)
30 The Deer God Feb 27, 2015 $14.99N/A (N/A/59%)20,000 .. 50,0000%00:00 (00:00)
31 Night Forest Nov 8, 2016 $0.51N/A (N/A)100,000 .. 200,0000%00:00 (00:00)
32 Hero Quest: Tower Conflict Apr 13, 2016 $0.99N/A (N/A)200,000 .. 500,0000%00:00 (00:00)
33 Redemption: Eternal Quest Aug 28, 2015 $1.99N/A (N/A)100,000 .. 200,0000%00:00 (00:00)
34 Rats - Time is running out! Aug 19, 2015 $4.99N/A (N/A)50,000 .. 100,0000%00:00 (00:00)
35 Munin Jun 10, 2014 $0.49N/A (N/A/68%)100,000 .. 200,0000%00:00 (00:00)
36 电竞俱乐部/ESports Club Jun 30, 2017 $8.99N/A (N/A)100,000 .. 200,0000%00:00 (00:00)
37 Cuties May 29, 2016 $2.99N/A (N/A)50,000 .. 100,0000%00:00 (00:00)
38 10 Second Ninja X Jul 19, 2016 $9.99N/A (N/A)20,000 .. 50,0000%00:00 (00:00)
39 Impossiball Aug 8, 2017 $0.99N/A (N/A)0 .. 20,0000%00:00 (00:00)
40 Phoenix Force Nov 13, 2014 $3.99N/A (N/A)50,000 .. 100,0000%00:00 (00:00)
41 Please, Don't Touch Anything 3D Dec 7, 2016 $9.99N/A (N/A)20,000 .. 50,00025%01:30 (00:30)
42 CrazyCars3D Mar 28, 2016 $2.99N/A (N/A)50,000 .. 100,0000%00:00 (00:00)
43 Wild Island Quest Sep 4, 2015 $1.99N/A (N/A)50,000 .. 100,0000%00:00 (00:00)
44 The Bug Butcher Jan 19, 2016 $7.99N/A (N/A/81%)50,000 .. 100,0000%00:00 (00:00)
45 Three Dead Zed Jul 7, 2014 $5.99N/A (N/A)50,000 .. 100,0000%00:00 (00:00)
46 Call Of The Mighty Warriors Mar 1, 2019 $0.99N/A (N/A)20,000 .. 50,0000%00:00 (00:00)
47 Atomik: RunGunJumpGun Aug 31, 2016 $7.99N/A (N/A/82%)0 .. 20,0000%00:00 (00:00)
48 Pizza Express Jun 25, 2015 $6.99N/A (N/A)20,000 .. 50,0000%00:00 (00:00)
49 Darkness Assault Feb 6, 2015 $0.99N/A (N/A)200,000 .. 500,0000%00:00 (00:00)
50 Cubemen 2 Apr 8, 2013 $7.99N/A (N/A/68%)100,000 .. 200,0000%00:00 (00:00)
51 Dragon Kingdom War Feb 10, 2017 $4.99N/A (N/A)20,000 .. 50,0000%00:00 (00:00)
52 Mainlining Jan 26, 2017 $12.99N/A (N/A/73%)0 .. 20,0000%00:00 (00:00)
53 ROOT Nov 16, 2015 $9.99N/A (N/A)20,000 .. 50,0000%00:00 (00:00)
54 An Octave Higher Mar 27, 2015 $11.99N/A (N/A)0 .. 20,0000%00:00 (00:00)
55 Frederic: Resurrection of Music May 16, 2014 $2.99N/A (N/A)100,000 .. 200,0000%00:00 (00:00)
56 Karma Miwa Aug 12, 2016 $0.99N/A (N/A)20,000 .. 50,0000%00:00 (00:00)
57 Niche - a genetics survival game Sep 15, 2016 $17.99N/A (N/A)100,000 .. 200,0000%00:00 (00:00)
58 The Adventures of Mr. Bobley Jul 1, 2015 $3.99N/A (N/A)50,000 .. 100,0000%00:00 (00:00)
59 Sky Mercenaries Dec 16, 2014 $9.99N/A (N/A)20,000 .. 50,0000%00:00 (00:00)
60 Solar Flux Oct 24, 2013 $9.99N/A (N/A)100,000 .. 200,0000%00:00 (00:00)
61 Koi Musubi Aug 28, 2016 $10.99N/A (N/A)0 .. 20,0000%00:00 (00:00)
62 Pixel Puzzles Junior Feb 17, 2017 $9.99N/A (N/A)0 .. 20,0000%00:00 (00:00)
63 Lowglow Dec 3, 2015 $7.99N/A (N/A)50,000 .. 100,0000%00:00 (00:00)
64 Centauri Sector Jun 23, 2015 $4.99N/A (N/A)20,000 .. 50,0000%00:00 (00:00)
65 Frederic: Evil Strikes Back May 23, 2014 $7.99N/A (N/A)100,000 .. 200,0000%00:00 (00:00)
66 Super Duper Party Pooper Jun 6, 2016 $0.99N/A (N/A/40%)100,000 .. 200,0000%00:00 (00:00)
67 Mindless Running Feb 18, 2016 $0.49N/A (N/A)50,000 .. 100,0000%00:00 (00:00)
68 Sumo Revise Jun 25, 2015 $4.99N/A (N/A)50,000 .. 100,0000%00:00 (00:00)
69 Chronicles of a Dark Lord: Episode 1 Tides of Fate Complete Dec 19, 2014 $0.99N/A (N/A)50,000 .. 100,0000%00:00 (00:00)
70 Tiny Brains Dec 11, 2013 $9.99N/A (N/A)50,000 .. 100,0000%00:00 (00:00)
71 Time Of Silence Dec 6, 2016 $0.49N/A (N/A)100,000 .. 200,0000%00:00 (00:00)
72 Wrath of Anna Apr 2, 2018 $19.99N/A (N/A)20,000 .. 50,0000%00:00 (00:00)
73 Dream Factory Nov 2, 2015 $9.99N/A (N/A)0 .. 20,0000%00:00 (00:00)
74 Big Action Mega Fight! Jan 12, 2016 $1.99N/A (N/A)20,000 .. 50,0000%00:00 (00:00)
75 Boson X Sep 15, 2014 $2.99N/A (N/A)50,000 .. 100,0000%00:00 (00:00)
76 Bohemian Killing Jul 21, 2016 $12.99N/A (N/A/55%)0 .. 20,0000%00:00 (00:00)
77 Rabiez: Epidemic Mar 4, 2016 $1.99N/A (N/A)200,000 .. 500,0000%00:00 (00:00)
78 Aviary Attorney Dec 21, 2015 $14.99N/A (N/A/77%)50,000 .. 100,0000%00:00 (00:00)
79 Bermuda Mar 17, 2015 $2.99N/A (N/A)50,000 .. 100,0000%00:00 (00:00)
80 Escape Goat 2 Mar 24, 2014 $9.99N/A (N/A/76%)50,000 .. 100,0000%00:00 (00:00)
81 Rakuen May 10, 2017 $9.99N/A (N/A/84%)50,000 .. 100,0000%00:00 (00:00)
82 Blaite Jan 2, 2017 $0.99N/A (N/A)100,000 .. 200,0000%00:00 (00:00)
83 Fist Slash: Of Ultimate Fury Dec 10, 2015 $1.99N/A (N/A)0 .. 20,0000%00:00 (00:00)
84 Gryphon Knight Epic Aug 20, 2015 $6.99N/A (N/A/55%)20,000 .. 50,0000%00:00 (00:00)
85 Qora Oct 2, 2014 $9.99N/A (N/A/63%)20,000 .. 50,0000%00:00 (00:00)

Tags over time:

Access restricted.

This feature is only available to users with special access rights. Sorry.

If you want to proceed, you need to register or log in first and then back Steam Spy on Patreon. Look for Indie or Pro pledge.

Don't forget to use the same email as on Steam Spy!

Owners of this game also own:

Access restricted.

This feature is only available to users with special access rights. Sorry.

If you want to proceed, you need to register or log in first and then back Steam Spy on Patreon. Look for Indie or Pro pledge.

Don't forget to use the same email as on Steam Spy!

Playtime distribution:

Access restricted.

This feature is only available to users with special access rights. Sorry.

If you want to proceed, you need to register or log in first and then back Steam Spy on Patreon. Look for Indie or Pro pledge.

Don't forget to use the same email as on Steam Spy!

Playtime (2 weeks):

Access restricted.

This feature is only available to users with special access rights. Sorry.

If you want to proceed, you need to register or log in first and then back Steam Spy on Patreon. Look for Indie or Pro pledge.

Don't forget to use the same email as on Steam Spy!

User reviews:

Login required.

Please register or log in to see this information.